Time;durP1;ratioP1;P1;durP2;ratioP2;P2;SDS_P1;SDS_P2;PMS_P1;PMS_P2;Temp;Humidity;BMP_temperature;BMP_pressure;BME280_temperature;BME280_humidity;BME280_pressure;Samples;Min_cycle;Max_cycle;Signal;HPM_P1;HPM_P2
2021/10/30 00:00:58;;;;;;;5.95;3.65;;;;;;;;;;5010011;28;20025;-81
2021/10/30 00:03:23;;;;;;;7.05;3.95;;;;;;;;;;5004771;28;20041;-79
2021/10/30 00:05:50;;;;;;;7.80;3.70;;;;;;;;;;5004873;28;20096;-83
2021/10/30 00:08:16;;;;;;;5.40;4.13;;;;;;;;;;5005264;28;20022;-78
2021/10/30 00:10:43;;;;;;;6.43;4.00;;;;;;;;;;5012148;28;20157;-80
2021/10/30 00:13:08;;;;;;;6.22;4.05;;;;;;;;;;5012740;28;20068;-84
2021/10/30 00:15:33;;;;;;;5.78;4.10;;;;;;;;;;5011267;28;20069;-78
2021/10/30 00:17:59;;;;;;;4.82;3.83;;;;;;;;;;5012151;28;20064;-80
2021/10/30 00:20:24;;;;;;;5.97;3.78;;;;;;;;;;5010071;28;20025;-78
2021/10/30 00:22:50;;;;;;;5.75;3.97;;;;;;;;;;5010404;28;20083;-76
2021/10/30 00:25:15;;;;;;;6.57;4.30;;;;;;;;;;5005185;28;20508;-83
2021/10/30 00:27:42;;;;;;;7.95;4.63;;;;;;;;;;5014507;28;20025;-76
2021/10/30 00:30:09;;;;;;;5.60;3.90;;;;;;;;;;5011604;28;20033;-80
2021/10/30 00:32:34;;;;;;;6.95;3.92;;;;;;;;;;5016487;28;20216;-84
2021/10/30 00:34:59;;;;;;;4.97;3.92;;;;;;;;;;5008290;28;20445;-77
2021/10/30 00:37:25;;;;;;;6.10;4.07;;;;;;;;;;5012361;28;20405;-78
2021/10/30 00:39:52;;;;;;;7.18;4.28;;;;;;;;;;5009372;28;20071;-81
2021/10/30 00:42:17;;;;;;;6.38;4.00;;;;;;;;;;5015399;28;20033;-80
2021/10/30 00:44:42;;;;;;;6.85;4.30;;;;;;;;;;5014118;28;20030;-83
2021/10/30 00:47:08;;;;;;;6.60;4.30;;;;;;;;;;5009255;28;20022;-80
2021/10/30 00:49:34;;;;;;;5.93;3.70;;;;;;;;;;5012348;28;20060;-77
2021/10/30 00:52:01;;;;;;;6.05;4.53;;;;;;;;;;5014770;28;20024;-78
2021/10/30 00:54:26;;;;;;;5.80;4.35;;;;;;;;;;5007159;28;20028;-77
2021/10/30 00:56:54;;;;;;;6.90;4.07;;;;;;;;;;5003612;28;20666;-84
2021/10/30 00:59:21;;;;;;;5.68;4.22;;;;;;;;;;5010617;28;20025;-77
2021/10/30 01:01:48;;;;;;;5.78;4.40;;;;;;;;;;5009339;28;20021;-76
2021/10/30 01:04:16;;;;;;;5.57;3.92;;;;;;;;;;5011098;28;20075;-83
2021/10/30 01:06:44;;;;;;;5.40;4.00;;;;;;;;;;5013064;28;20021;-75
2021/10/30 01:09:09;;;;;;;6.57;4.13;;;;;;;;;;5015857;28;20107;-83
2021/10/30 01:11:35;;;;;;;6.57;4.10;;;;;;;;;;5014682;28;20077;-80
2021/10/30 01:14:01;;;;;;;7.40;4.13;;;;;;;;;;5009731;28;20116;-82
2021/10/30 01:16:28;;;;;;;6.78;4.50;;;;;;;;;;5008854;28;20188;-83
2021/10/30 01:18:53;;;;;;;7.60;4.20;;;;;;;;;;5009052;28;20393;-80
2021/10/30 01:21:30;;;;;;;6.05;3.92;;;;;;;;;;5009218;28;20034;-80
2021/10/30 01:23:56;;;;;;;6.22;4.50;;;;;;;;;;5007130;28;20030;-82
2021/10/30 01:26:21;;;;;;;6.97;4.38;;;;;;;;;;5006621;28;20477;-82
2021/10/30 01:28:48;;;;;;;6.18;4.28;;;;;;;;;;5007012;28;20033;-83
2021/10/30 01:31:13;;;;;;;6.32;4.57;;;;;;;;;;5007803;28;20878;-76
2021/10/30 01:33:42;;;;;;;5.82;4.20;;;;;;;;;;5013628;28;20026;-75
2021/10/30 01:36:08;;;;;;;5.50;4.10;;;;;;;;;;5010307;28;20026;-80
2021/10/30 01:38:33;;;;;;;6.32;4.35;;;;;;;;;;5014038;28;20044;-80
2021/10/30 01:40:59;;;;;;;6.03;4.47;;;;;;;;;;5017389;28;20401;-84
2021/10/30 01:43:24;;;;;;;5.75;4.25;;;;;;;;;;5012217;28;20071;-76
2021/10/30 01:45:51;;;;;;;6.80;4.45;;;;;;;;;;5010999;28;20068;-83
2021/10/30 01:48:16;;;;;;;7.45;4.93;;;;;;;;;;5008557;28;20017;-83
2021/10/30 01:50:42;;;;;;;6.10;4.50;;;;;;;;;;5010697;28;20048;-84
2021/10/30 01:53:08;;;;;;;5.90;4.20;;;;;;;;;;5004102;28;20041;-76
2021/10/30 01:55:37;;;;;;;5.78;4.40;;;;;;;;;;5012502;28;20041;-77
2021/10/30 01:58:02;;;;;;;5.82;4.30;;;;;;;;;;5010585;28;20041;-85
2021/10/30 02:00:28;;;;;;;6.55;4.43;;;;;;;;;;5010834;28;20021;-83
2021/10/30 02:02:54;;;;;;;7.88;4.60;;;;;;;;;;5013395;28;20388;-75
2021/10/30 02:05:19;;;;;;;6.00;4.80;;;;;;;;;;5014793;28;20536;-80
2021/10/30 02:07:45;;;;;;;6.43;4.60;;;;;;;;;;5015125;28;20021;-80
2021/10/30 02:10:12;;;;;;;6.65;4.35;;;;;;;;;;5008192;28;20050;-77
2021/10/30 02:12:37;;;;;;;6.47;4.78;;;;;;;;;;5008129;28;20022;-84
2021/10/30 02:15:04;;;;;;;6.82;4.95;;;;;;;;;;5017697;28;20045;-78
2021/10/30 02:17:29;;;;;;;8.75;4.60;;;;;;;;;;5015396;28;20451;-84
2021/10/30 02:19:54;;;;;;;7.05;4.72;;;;;;;;;;5013331;28;20113;-77
2021/10/30 02:22:20;;;;;;;8.77;5.40;;;;;;;;;;5014872;28;20017;-76
2021/10/30 02:24:45;;;;;;;6.32;4.70;;;;;;;;;;5011041;28;20065;-80
2021/10/30 02:27:11;;;;;;;7.40;5.10;;;;;;;;;;5013796;28;20026;-80
2021/10/30 02:29:36;;;;;;;7.72;5.18;;;;;;;;;;5009747;28;20034;-80
2021/10/30 02:32:03;;;;;;;7.28;4.80;;;;;;;;;;5018519;28;20022;-78
2021/10/30 02:34:29;;;;;;;7.68;4.90;;;;;;;;;;5013295;28;20061;-84
2021/10/30 02:36:54;;;;;;;7.45;4.80;;;;;;;;;;5011737;28;20065;-80
2021/10/30 02:39:20;;;;;;;7.97;5.00;;;;;;;;;;5013666;28;20029;-80
2021/10/30 02:41:45;;;;;;;6.28;4.68;;;;;;;;;;5013605;28;20029;-80
2021/10/30 02:44:11;;;;;;;5.93;4.80;;;;;;;;;;5006826;28;20030;-83
2021/10/30 02:46:36;;;;;;;8.43;5.18;;;;;;;;;;5013241;28;20112;-77
2021/10/30 02:49:02;;;;;;;7.82;4.75;;;;;;;;;;5016809;28;20112;-77
2021/10/30 02:51:28;;;;;;;7.45;5.57;;;;;;;;;;5007730;28;21425;-80
2021/10/30 02:53:53;;;;;;;6.28;4.82;;;;;;;;;;5014754;28;20043;-80
2021/10/30 02:56:19;;;;;;;7.32;5.53;;;;;;;;;;5009600;28;20026;-76
2021/10/30 02:58:44;;;;;;;6.47;5.10;;;;;;;;;;5015060;28;20816;-75
2021/10/30 03:01:09;;;;;;;9.65;5.20;;;;;;;;;;5006310;28;20045;-75
2021/10/30 03:03:34;;;;;;;7.70;5.40;;;;;;;;;;5020843;28;20033;-77
2021/10/30 03:06:00;;;;;;;6.47;5.03;;;;;;;;;;5007144;28;20029;-80
2021/10/30 03:08:25;;;;;;;6.63;4.80;;;;;;;;;;5008403;28;20079;-83
2021/10/30 03:10:51;;;;;;;8.05;5.38;;;;;;;;;;5011055;28;20057;-76
2021/10/30 03:13:16;;;;;;;7.75;5.40;;;;;;;;;;5009004;28;20036;-77
2021/10/30 03:15:42;;;;;;;10.13;5.63;;;;;;;;;;5008261;28;20458;-84
2021/10/30 03:18:07;;;;;;;9.85;5.47;;;;;;;;;;5013115;28;20120;-82
2021/10/30 03:20:33;;;;;;;9.13;5.07;;;;;;;;;;5010639;28;20033;-84
2021/10/30 03:22:58;;;;;;;7.32;5.50;;;;;;;;;;5014598;28;20496;-77
2021/10/30 03:25:24;;;;;;;7.20;4.88;;;;;;;;;;5008465;28;20033;-79
2021/10/30 03:27:50;;;;;;;8.02;5.32;;;;;;;;;;5018763;28;20466;-84
2021/10/30 03:30:15;;;;;;;7.57;5.80;;;;;;;;;;5016377;28;20091;-75
2021/10/30 03:32:41;;;;;;;8.98;5.57;;;;;;;;;;5009968;28;20389;-79
2021/10/30 03:35:07;;;;;;;8.57;5.90;;;;;;;;;;5004075;28;20449;-80
2021/10/30 03:37:34;;;;;;;7.32;5.78;;;;;;;;;;5009516;28;20045;-75
2021/10/30 03:40:00;;;;;;;8.88;6.03;;;;;;;;;;5011195;28;20117;-84
2021/10/30 03:42:26;;;;;;;8.00;6.00;;;;;;;;;;5012117;28;20520;-84
2021/10/30 03:44:51;;;;;;;9.48;5.82;;;;;;;;;;5008436;28;20064;-75
2021/10/30 03:47:17;;;;;;;9.65;6.00;;;;;;;;;;5008555;28;20030;-84
2021/10/30 03:49:43;;;;;;;9.52;6.40;;;;;;;;;;5010969;28;20041;-77
2021/10/30 03:52:08;;;;;;;8.57;5.97;;;;;;;;;;5011772;28;20030;-80
2021/10/30 03:54:33;;;;;;;7.70;6.18;;;;;;;;;;5015897;28;20026;-80
2021/10/30 03:56:59;;;;;;;8.57;6.00;;;;;;;;;;5010347;28;20033;-84
2021/10/30 03:59:24;;;;;;;7.68;5.80;;;;;;;;;;5012630;28;20037;-77
2021/10/30 04:01:49;;;;;;;7.60;6.00;;;;;;;;;;5008435;28;20022;-77
2021/10/30 04:04:15;;;;;;;8.73;6.10;;;;;;;;;;5010680;28;20409;-80
2021/10/30 04:06:40;;;;;;;8.32;6.35;;;;;;;;;;5015730;28;20423;-82
2021/10/30 04:09:06;;;;;;;10.88;6.43;;;;;;;;;;5008162;28;20038;-82
2021/10/30 04:11:31;;;;;;;9.38;6.47;;;;;;;;;;5011248;28;20133;-80
2021/10/30 04:13:56;;;;;;;10.57;6.15;;;;;;;;;;5008600;28;20053;-84
2021/10/30 04:16:22;;;;;;;10.18;6.03;;;;;;;;;;5006675;28;20470;-84
2021/10/30 04:18:48;;;;;;;10.15;6.10;;;;;;;;;;5013219;28;20033;-75
2021/10/30 04:21:13;;;;;;;8.95;6.00;;;;;;;;;;5011804;28;21128;-83
2021/10/30 04:23:39;;;;;;;7.88;5.93;;;;;;;;;;5012026;28;20025;-75
2021/10/30 04:26:05;;;;;;;8.98;6.13;;;;;;;;;;5007935;28;20030;-77
2021/10/30 04:28:31;;;;;;;9.45;5.93;;;;;;;;;;5012996;28;20026;-75
2021/10/30 04:31:02;;;;;;;9.07;6.40;;;;;;;;;;5015622;28;20456;-84
2021/10/30 04:33:27;;;;;;;8.15;5.82;;;;;;;;;;5011163;28;20037;-79
2021/10/30 04:35:52;;;;;;;10.25;6.50;;;;;;;;;;5018902;28;20478;-80
2021/10/30 04:38:18;;;;;;;10.30;6.32;;;;;;;;;;5015151;28;20057;-76
2021/10/30 04:40:43;;;;;;;9.45;6.70;;;;;;;;;;5012482;28;20045;-83
2021/10/30 04:43:08;;;;;;;11.50;6.28;;;;;;;;;;5015915;28;20041;-80
2021/10/30 04:45:34;;;;;;;9.95;6.10;;;;;;;;;;5014064;28;20080;-77
2021/10/30 04:48:00;;;;;;;8.75;6.15;;;;;;;;;;5004354;28;20394;-80
2021/10/30 04:50:25;;;;;;;12.55;6.22;;;;;;;;;;5011481;28;20044;-80
2021/10/30 04:52:51;;;;;;;8.18;6.10;;;;;;;;;;5006806;28;20053;-81
2021/10/30 04:55:16;;;;;;;8.88;6.20;;;;;;;;;;5012396;28;20062;-77
2021/10/30 04:57:41;;;;;;;9.30;6.47;;;;;;;;;;5013807;28;20030;-77
2021/10/30 05:00:07;;;;;;;9.63;6.95;;;;;;;;;;5015211;28;20061;-75
2021/10/30 05:02:33;;;;;;;9.32;6.00;;;;;;;;;;5010180;28;20026;-76
2021/10/30 05:04:58;;;;;;;10.43;6.57;;;;;;;;;;5010770;28;20481;-83
2021/10/30 05:07:23;;;;;;;12.02;6.68;;;;;;;;;;5013622;28;20014;-85
2021/10/30 05:09:49;;;;;;;10.85;6.70;;;;;;;;;;5012584;28;20050;-82
2021/10/30 05:12:14;;;;;;;8.48;5.75;;;;;;;;;;5020661;28;20030;-77
2021/10/30 05:14:39;;;;;;;10.52;6.47;;;;;;;;;;5005160;28;20112;-80
2021/10/30 05:17:05;;;;;;;11.18;7.13;;;;;;;;;;5008290;28;20037;-83
2021/10/30 05:19:30;;;;;;;10.40;6.07;;;;;;;;;;5002662;28;20049;-80
2021/10/30 05:21:55;;;;;;;9.43;6.32;;;;;;;;;;5013749;28;20067;-75
2021/10/30 05:24:21;;;;;;;9.40;6.38;;;;;;;;;;5010965;28;20075;-76
2021/10/30 05:26:46;;;;;;;11.80;6.20;;;;;;;;;;5009616;28;22113;-81
2021/10/30 05:29:11;;;;;;;9.63;5.70;;;;;;;;;;5006317;28;20062;-76
2021/10/30 05:31:37;;;;;;;8.70;6.05;;;;;;;;;;5010161;28;20030;-80
2021/10/30 05:34:02;;;;;;;8.88;5.43;;;;;;;;;;5016760;28;20113;-77
2021/10/30 05:36:30;;;;;;;8.23;5.72;;;;;;;;;;5011340;28;20103;-84
2021/10/30 05:38:55;;;;;;;8.60;5.43;;;;;;;;;;5012081;28;20030;-82
2021/10/30 05:41:21;;;;;;;9.27;6.05;;;;;;;;;;5012110;28;20156;-75
2021/10/30 05:43:47;;;;;;;7.38;5.47;;;;;;;;;;5014600;28;20072;-88
2021/10/30 05:46:13;;;;;;;9.23;5.85;;;;;;;;;;5005211;28;21803;-81
2021/10/30 05:48:39;;;;;;;9.82;6.32;;;;;;;;;;5012844;28;20116;-77
2021/10/30 05:51:08;;;;;;;9.70;5.68;;;;;;;;;;5012880;28;20116;-76
2021/10/30 05:53:33;;;;;;;9.60;6.55;;;;;;;;;;5014829;28;20033;-86
2021/10/30 05:55:59;;;;;;;8.25;6.10;;;;;;;;;;5007789;28;20030;-85
2021/10/30 05:58:24;;;;;;;7.88;5.57;;;;;;;;;;5007087;28;20038;-76
2021/10/30 06:00:50;;;;;;;8.35;5.65;;;;;;;;;;5006342;28;20045;-77
2021/10/30 06:03:15;;;;;;;8.93;6.03;;;;;;;;;;5001117;28;20112;-83
2021/10/30 06:05:40;;;;;;;9.07;6.25;;;;;;;;;;5011152;28;20097;-88
2021/10/30 06:08:06;;;;;;;10.80;5.80;;;;;;;;;;5014726;28;20057;-77
2021/10/30 06:10:34;;;;;;;11.07;6.55;;;;;;;;;;5016547;28;20041;-80
2021/10/30 06:12:59;;;;;;;10.88;5.70;;;;;;;;;;5009602;28;20034;-84
2021/10/30 06:15:25;;;;;;;11.18;5.72;;;;;;;;;;5022379;28;20037;-76
2021/10/30 06:17:50;;;;;;;10.68;6.38;;;;;;;;;;5007883;28;20038;-77
2021/10/30 06:20:15;;;;;;;12.00;6.40;;;;;;;;;;5009622;28;20041;-77
2021/10/30 06:22:43;;;;;;;10.15;6.28;;;;;;;;;;5009110;28;20026;-77
2021/10/30 06:25:14;;;;;;;9.07;5.97;;;;;;;;;;5010707;28;20037;-78
2021/10/30 06:27:39;;;;;;;8.55;5.68;;;;;;;;;;5015991;28;20034;-90
2021/10/30 06:30:07;;;;;;;10.02;6.18;;;;;;;;;;5013435;28;20033;-78
2021/10/30 06:32:33;;;;;;;13.63;6.57;;;;;;;;;;5009238;28;20054;-76
2021/10/30 06:34:58;;;;;;;7.55;6.05;;;;;;;;;;5012873;28;20186;-77
2021/10/30 06:37:24;;;;;;;9.88;6.18;;;;;;;;;;5011612;28;20022;-91
2021/10/30 06:39:49;;;;;;;9.90;6.32;;;;;;;;;;5005582;28;20138;-88
2021/10/30 06:42:15;;;;;;;9.02;5.88;;;;;;;;;;5011126;28;20473;-76
2021/10/30 06:44:41;;;;;;;12.10;6.20;;;;;;;;;;5008955;28;20025;-77
2021/10/30 06:47:06;;;;;;;9.98;6.38;;;;;;;;;;5006592;28;20441;-76
2021/10/30 06:49:32;;;;;;;10.10;6.20;;;;;;;;;;5001612;28;20030;-87
2021/10/30 06:51:57;;;;;;;10.98;6.60;;;;;;;;;;5012250;28;20029;-83
2021/10/30 06:54:24;;;;;;;9.32;6.15;;;;;;;;;;5006806;28;20069;-78
2021/10/30 06:56:50;;;;;;;10.20;6.25;;;;;;;;;;5009870;28;20033;-83
2021/10/30 06:59:15;;;;;;;11.77;6.88;;;;;;;;;;5016366;28;20112;-89
2021/10/30 07:01:41;;;;;;;8.65;6.10;;;;;;;;;;5014882;28;20481;-83
2021/10/30 07:04:06;;;;;;;10.35;6.40;;;;;;;;;;5014922;28;20030;-77
2021/10/30 07:06:33;;;;;;;10.05;6.40;;;;;;;;;;5010167;28;20079;-77
2021/10/30 07:08:59;;;;;;;10.77;6.00;;;;;;;;;;5012123;28;20041;-89
2021/10/30 07:11:25;;;;;;;8.80;6.07;;;;;;;;;;5011529;28;20243;-83
2021/10/30 07:13:51;;;;;;;8.25;6.20;;;;;;;;;;5012346;28;20059;-84
2021/10/30 07:16:16;;;;;;;9.18;5.70;;;;;;;;;;5001147;28;20125;-88
2021/10/30 07:18:43;;;;;;;10.23;6.63;;;;;;;;;;5007827;28;20026;-89
2021/10/30 07:21:08;;;;;;;11.25;6.25;;;;;;;;;;5011627;28;20017;-78
2021/10/30 07:23:34;;;;;;;8.88;5.90;;;;;;;;;;5007574;28;20128;-78
2021/10/30 07:26:00;;;;;;;8.98;6.00;;;;;;;;;;5014824;28;20025;-77
2021/10/30 07:28:25;;;;;;;11.35;6.10;;;;;;;;;;5013559;28;20051;-83
2021/10/30 07:30:50;;;;;;;7.80;5.47;;;;;;;;;;5010829;28;20495;-79
2021/10/30 07:33:15;;;;;;;8.75;5.53;;;;;;;;;;5014516;28;20034;-84
2021/10/30 07:35:41;;;;;;;8.95;6.05;;;;;;;;;;5009205;28;20026;-78
2021/10/30 07:38:06;;;;;;;9.50;5.72;;;;;;;;;;5003094;28;20022;-78
2021/10/30 07:40:32;;;;;;;9.85;5.80;;;;;;;;;;5013952;28;20692;-77
2021/10/30 07:42:58;;;;;;;8.05;6.03;;;;;;;;;;5011053;28;20041;-78
2021/10/30 07:45:25;;;;;;;9.32;5.45;;;;;;;;;;5010537;28;20137;-78
2021/10/30 07:47:50;;;;;;;10.60;5.70;;;;;;;;;;5010790;28;20213;-83
2021/10/30 07:50:16;;;;;;;11.35;5.85;;;;;;;;;;5010358;28;20045;-89
2021/10/30 07:52:41;;;;;;;9.00;5.60;;;;;;;;;;5006284;28;20129;-83
2021/10/30 07:55:07;;;;;;;9.50;5.63;;;;;;;;;;5009324;28;20041;-84
2021/10/30 07:57:33;;;;;;;8.43;5.35;;;;;;;;;;5015845;28;20076;-88
2021/10/30 07:59:58;;;;;;;9.68;5.13;;;;;;;;;;5015971;28;20069;-79
2021/10/30 08:02:24;;;;;;;9.77;5.80;;;;;;;;;;5011991;28;20021;-86
2021/10/30 08:04:49;;;;;;;9.40;5.35;;;;;;;;;;5019549;28;20037;-83
2021/10/30 08:07:15;;;;;;;9.77;5.63;;;;;;;;;;5009011;28;20018;-78
2021/10/30 08:09:41;;;;;;;9.02;5.57;;;;;;;;;;5021485;28;20046;-80
2021/10/30 08:12:06;;;;;;;9.82;5.60;;;;;;;;;;5010716;28;20053;-86
2021/10/30 08:14:32;;;;;;;11.63;5.60;;;;;;;;;;5016689;28;20026;-78
2021/10/30 08:16:57;;;;;;;8.13;5.22;;;;;;;;;;5005616;28;20080;-88
2021/10/30 08:19:22;;;;;;;8.35;5.13;;;;;;;;;;5022182;28;20396;-78
2021/10/30 08:21:48;;;;;;;8.65;5.60;;;;;;;;;;5016655;28;20025;-80
2021/10/30 08:24:14;;;;;;;8.15;5.32;;;;;;;;;;5009387;28;20036;-83
2021/10/30 08:26:40;;;;;;;8.73;5.53;;;;;;;;;;5008084;28;20417;-77
2021/10/30 08:29:05;;;;;;;8.50;6.07;;;;;;;;;;5005949;28;20514;-78
2021/10/30 08:31:31;;;;;;;8.68;5.70;;;;;;;;;;5010809;28;20029;-81
2021/10/30 08:33:57;;;;;;;7.97;5.45;;;;;;;;;;5014162;28;20030;-79
2021/10/30 08:36:24;;;;;;;7.97;5.20;;;;;;;;;;5014188;28;20022;-79
2021/10/30 08:38:49;;;;;;;9.52;5.50;;;;;;;;;;5005948;28;20042;-78
2021/10/30 08:41:14;;;;;;;8.23;5.50;;;;;;;;;;5009336;28;20034;-80
2021/10/30 08:43:40;;;;;;;8.50;5.45;;;;;;;;;;5018467;28;20064;-83
2021/10/30 08:46:05;;;;;;;7.93;5.15;;;;;;;;;;5014148;28;20021;-82
2021/10/30 08:48:32;;;;;;;7.43;5.03;;;;;;;;;;5014639;28;20140;-78
2021/10/30 08:51:03;;;;;;;7.75;5.75;;;;;;;;;;5008571;28;20688;-79
2021/10/30 08:53:30;;;;;;;8.10;5.53;;;;;;;;;;5017957;28;20080;-82
2021/10/30 08:55:58;;;;;;;9.23;5.50;;;;;;;;;;5013551;28;20021;-78
2021/10/30 08:58:25;;;;;;;8.30;5.57;;;;;;;;;;5005432;28;20445;-79
2021/10/30 09:00:53;;;;;;;8.20;5.60;;;;;;;;;;5010115;28;20409;-79
2021/10/30 09:03:21;;;;;;;8.00;5.65;;;;;;;;;;5009025;28;20025;-77
2021/10/30 09:05:52;;;;;;;13.02;5.65;;;;;;;;;;5006069;28;20498;-77
2021/10/30 09:08:23;;;;;;;8.02;5.32;;;;;;;;;;5013078;28;20397;-86
2021/10/30 09:10:51;;;;;;;9.70;5.10;;;;;;;;;;5013679;28;20049;-85
2021/10/30 09:13:19;;;;;;;8.52;4.82;;;;;;;;;;5013084;28;20042;-77
2021/10/30 09:15:46;;;;;;;10.02;5.30;;;;;;;;;;5020979;28;20064;-81
2021/10/30 09:18:34;;;;;;;6.72;5.13;;;;;;;;;;5008939;28;20497;-81
2021/10/30 09:21:03;;;;;;;7.85;5.43;;;;;;;;;;5006846;28;20046;-78
2021/10/30 09:23:52;;;;;;;9.48;6.07;;;;;;;;;;5001006;28;20062;-86
2021/10/30 09:26:24;;;;;;;6.68;5.03;;;;;;;;;;4994247;28;20066;-79
2021/10/30 09:28:57;;;;;;;7.32;5.05;;;;;;;;;;5015788;28;20057;-85
2021/10/30 09:31:24;;;;;;;7.47;5.55;;;;;;;;;;5001198;28;20037;-78
2021/10/30 09:33:55;;;;;;;9.27;5.50;;;;;;;;;;5003602;28;20476;-81
2021/10/30 09:36:22;;;;;;;9.30;5.43;;;;;;;;;;5011602;28;20048;-77
2021/10/30 09:38:57;;;;;;;8.60;5.15;;;;;;;;;;5004333;28;20473;-80
2021/10/30 09:41:29;;;;;;;7.82;5.00;;;;;;;;;;5011012;28;20056;-80
2021/10/30 09:44:03;;;;;;;8.32;5.57;;;;;;;;;;5008085;28;20026;-83
2021/10/30 09:46:52;;;;;;;9.15;5.20;;;;;;;;;;5013472;28;20030;-79
2021/10/30 09:49:19;;;;;;;9.32;5.53;;;;;;;;;;5007328;28;20480;-79
2021/10/30 09:51:47;;;;;;;9.13;5.43;;;;;;;;;;5009773;28;20900;-81
2021/10/30 09:54:12;;;;;;;8.18;5.78;;;;;;;;;;5005150;28;20041;-80
2021/10/30 09:56:43;;;;;;;9.80;5.32;;;;;;;;;;5013277;28;20022;-77
2021/10/30 09:59:11;;;;;;;7.22;4.97;;;;;;;;;;5006997;28;20042;-83
2021/10/30 10:01:37;;;;;;;7.10;5.03;;;;;;;;;;5005521;28;20121;-80
2021/10/30 10:04:03;;;;;;;9.82;5.28;;;;;;;;;;5005404;28;20022;-85
2021/10/30 10:06:33;;;;;;;8.32;5.45;;;;;;;;;;5009537;28;20022;-84
2021/10/30 10:09:01;;;;;;;7.45;5.28;;;;;;;;;;5012177;28;20185;-80
2021/10/30 10:11:27;;;;;;;9.00;5.60;;;;;;;;;;5012109;28;20054;-79
2021/10/30 10:13:53;;;;;;;8.93;5.57;;;;;;;;;;5007225;28;20050;-77
2021/10/30 10:16:20;;;;;;;8.60;5.88;;;;;;;;;;5006312;28;20079;-80
2021/10/30 10:18:47;;;;;;;8.20;5.05;;;;;;;;;;5006897;28;20489;-83
2021/10/30 10:21:17;;;;;;;7.25;5.47;;;;;;;;;;5004147;28;20025;-79
2021/10/30 10:23:43;;;;;;;7.55;4.88;;;;;;;;;;5005322;28;20128;-79
2021/10/30 10:26:10;;;;;;;8.45;5.50;;;;;;;;;;5000031;28;20109;-80
2021/10/30 10:28:38;;;;;;;8.32;5.18;;;;;;;;;;5007922;28;20025;-77
2021/10/30 10:31:10;;;;;;;7.25;5.00;;;;;;;;;;5010481;28;20029;-84
2021/10/30 10:33:40;;;;;;;7.78;5.50;;;;;;;;;;5001261;28;20130;-80
2021/10/30 10:36:20;;;;;;;7.45;4.75;;;;;;;;;;4999562;28;20040;-79
2021/10/30 10:38:57;;;;;;;7.13;5.00;;;;;;;;;;4998452;28;20027;-82
2021/10/30 10:41:44;;;;;;;8.57;5.20;;;;;;;;;;5005758;28;20551;-80
2021/10/30 10:44:37;;;;;;;7.93;4.88;;;;;;;;;;5003362;28;20033;-79
2021/10/30 10:47:03;;;;;;;6.60;4.88;;;;;;;;;;4990982;28;20481;-77
2021/10/30 10:52:18;;;;;;;8.60;5.55;;;;;;;;;;5002215;28;20091;-80
2021/10/30 10:54:52;;;;;;;9.40;5.28;;;;;;;;;;5002440;28;20493;-78
2021/10/30 10:57:23;;;;;;;6.88;4.97;;;;;;;;;;5005795;28;20038;-82
2021/10/30 11:00:15;;;;;;;8.82;5.30;;;;;;;;;;5005607;28;20029;-85
2021/10/30 11:03:02;;;;;;;7.47;4.82;;;;;;;;;;5013675;28;20037;-86
2021/10/30 11:05:35;;;;;;;6.93;5.05;;;;;;;;;;5009550;28;20041;-80
2021/10/30 11:08:09;;;;;;;10.63;5.35;;;;;;;;;;5009535;28;20025;-75
2021/10/30 11:10:39;;;;;;;7.18;4.82;;;;;;;;;;5011143;28;20052;-78
2021/10/30 11:13:09;;;;;;;6.43;4.60;;;;;;;;;;5010642;28;20041;-80
2021/10/30 11:16:04;;;;;;;6.75;4.40;;;;;;;;;;5012586;28;20388;-85
2021/10/30 11:18:44;;;;;;;6.10;4.53;;;;;;;;;;5002163;28;20527;-77
2021/10/30 11:21:22;;;;;;;6.13;4.65;;;;;;;;;;5012858;28;20040;-80
2021/10/30 11:23:50;;;;;;;5.38;4.35;;;;;;;;;;5012931;28;20124;-85
2021/10/30 11:26:24;;;;;;;6.95;4.47;;;;;;;;;;5016037;28;20664;-76
2021/10/30 11:28:50;;;;;;;7.00;4.30;;;;;;;;;;5022839;28;20066;-80
2021/10/30 11:31:17;;;;;;;5.80;4.30;;;;;;;;;;5016114;28;20029;-76
2021/10/30 11:33:43;;;;;;;5.40;3.72;;;;;;;;;;5013233;28;20544;-76
2021/10/30 11:36:14;;;;;;;7.45;4.60;;;;;;;;;;5014726;28;20048;-77
2021/10/30 11:38:39;;;;;;;5.85;3.83;;;;;;;;;;5016234;28;20079;-85
2021/10/30 11:41:04;;;;;;;6.45;4.05;;;;;;;;;;5023404;28;20030;-77
2021/10/30 11:43:31;;;;;;;6.20;3.88;;;;;;;;;;5014407;28;20025;-77
2021/10/30 11:46:08;;;;;;;5.13;3.88;;;;;;;;;;5015331;28;20022;-84
2021/10/30 11:48:44;;;;;;;6.22;3.97;;;;;;;;;;5008124;28;20022;-77
2021/10/30 11:51:18;;;;;;;6.72;4.10;;;;;;;;;;5011505;28;20065;-80
2021/10/30 11:53:48;;;;;;;5.75;3.67;;;;;;;;;;5005564;28;20077;-80
2021/10/30 11:56:16;;;;;;;5.53;3.70;;;;;;;;;;5011255;28;20029;-80
2021/10/30 11:58:50;;;;;;;5.35;4.00;;;;;;;;;;5001538;28;20034;-85
2021/10/30 12:01:29;;;;;;;6.03;4.25;;;;;;;;;;5004022;28;20029;-80
2021/10/30 12:04:01;;;;;;;5.50;3.92;;;;;;;;;;5008815;28;20030;-80
2021/10/30 12:06:28;;;;;;;6.80;4.20;;;;;;;;;;5005155;28;20037;-77
2021/10/30 12:08:56;;;;;;;6.30;3.60;;;;;;;;;;5005787;28;20021;-76
2021/10/30 12:11:23;;;;;;;6.40;3.88;;;;;;;;;;5014446;28;20559;-80
2021/10/30 12:13:50;;;;;;;7.13;3.72;;;;;;;;;;5011374;28;20026;-76
2021/10/30 12:16:15;;;;;;;6.15;3.72;;;;;;;;;;5006363;28;20504;-85
2021/10/30 12:18:42;;;;;;;5.97;3.65;;;;;;;;;;5001605;28;20043;-76
2021/10/30 12:21:12;;;;;;;8.20;3.58;;;;;;;;;;5006656;28;20025;-77
2021/10/30 12:24:03;;;;;;;4.53;3.20;;;;;;;;;;5013819;28;20036;-76
2021/10/30 12:26:31;;;;;;;4.82;3.10;;;;;;;;;;5010073;28;20025;-77
2021/10/30 12:29:20;;;;;;;5.45;3.30;;;;;;;;;;5006783;28;20048;-77
2021/10/30 12:32:01;;;;;;;4.88;3.10;;;;;;;;;;5006975;28;20022;-85
2021/10/30 12:34:26;;;;;;;4.93;3.22;;;;;;;;;;5008455;28;20040;-80
2021/10/30 12:36:56;;;;;;;4.65;2.97;;;;;;;;;;5015820;28;20027;-80
2021/10/30 12:39:25;;;;;;;5.60;3.38;;;;;;;;;;5011867;28;20385;-77
2021/10/30 12:42:02;;;;;;;5.82;3.30;;;;;;;;;;5012122;28;20033;-77
2021/10/30 12:44:31;;;;;;;4.50;3.13;;;;;;;;;;4997440;28;20029;-80
2021/10/30 12:47:00;;;;;;;4.70;2.85;;;;;;;;;;5017348;28;20019;-77
2021/10/30 12:49:31;;;;;;;5.45;3.42;;;;;;;;;;5017690;28;20026;-77
2021/10/30 12:52:02;;;;;;;5.32;3.30;;;;;;;;;;5028175;28;20038;-80
2021/10/30 12:54:27;;;;;;;7.10;3.35;;;;;;;;;;5012445;28;20029;-85
2021/10/30 12:56:53;;;;;;;4.95;3.00;;;;;;;;;;5021195;28;20032;-77
2021/10/30 12:59:26;;;;;;;4.70;2.90;;;;;;;;;;5021478;28;20494;-85
2021/10/30 13:01:53;;;;;;;4.60;3.10;;;;;;;;;;5013885;28;20033;-84
2021/10/30 13:04:29;;;;;;;4.97;3.17;;;;;;;;;;5017151;28;20026;-80
2021/10/30 13:07:09;;;;;;;4.75;2.63;;;;;;;;;;5009701;28;20046;-76
2021/10/30 13:09:36;;;;;;;4.40;3.17;;;;;;;;;;5019517;28;20037;-77
2021/10/30 13:12:03;;;;;;;4.43;2.97;;;;;;;;;;5017015;28;20022;-76
2021/10/30 13:14:28;;;;;;;5.80;3.00;;;;;;;;;;5018366;28;20093;-80
2021/10/30 13:16:54;;;;;;;6.45;3.13;;;;;;;;;;5013679;28;20509;-80
2021/10/30 13:19:20;;;;;;;4.57;2.97;;;;;;;;;;5009703;28;20026;-77
2021/10/30 13:21:48;;;;;;;6.07;2.75;;;;;;;;;;5016372;28;20026;-77
2021/10/30 13:24:13;;;;;;;4.53;3.03;;;;;;;;;;5005237;28;20485;-76
2021/10/30 13:26:39;;;;;;;5.13;2.85;;;;;;;;;;5019716;28;20027;-85
2021/10/30 13:29:05;;;;;;;4.68;2.40;;;;;;;;;;5013505;28;20084;-86
2021/10/30 13:31:33;;;;;;;4.53;2.75;;;;;;;;;;5014441;28;20030;-78
2021/10/30 13:33:59;;;;;;;3.67;2.30;;;;;;;;;;5015819;28;20049;-82
2021/10/30 13:36:25;;;;;;;4.00;2.10;;;;;;;;;;5013425;28;20381;-85
2021/10/30 13:38:52;;;;;;;4.03;2.05;;;;;;;;;;5018254;28;20381;-84
2021/10/30 13:41:21;;;;;;;3.28;1.83;;;;;;;;;;5015465;28;20033;-78
2021/10/30 13:43:47;;;;;;;4.40;1.70;;;;;;;;;;5015519;28;20079;-81
2021/10/30 13:46:13;;;;;;;3.72;1.70;;;;;;;;;;5009512;28;20037;-86
2021/10/30 13:48:38;;;;;;;4.05;1.80;;;;;;;;;;5021826;28;20022;-81
2021/10/30 13:51:03;;;;;;;2.78;1.70;;;;;;;;;;5014514;28;20033;-86
2021/10/30 13:53:29;;;;;;;4.00;1.90;;;;;;;;;;5017339;28;20026;-85
2021/10/30 13:55:55;;;;;;;4.25;1.70;;;;;;;;;;5016629;28;20022;-77
2021/10/30 13:58:20;;;;;;;3.53;1.73;;;;;;;;;;5013137;28;20036;-77
2021/10/30 14:00:45;;;;;;;2.47;1.60;;;;;;;;;;5015264;28;20485;-81
2021/10/30 14:03:11;;;;;;;3.13;1.50;;;;;;;;;;5015358;28;20119;-76
2021/10/30 14:05:36;;;;;;;4.80;1.65;;;;;;;;;;5018454;28;20492;-77
2021/10/30 14:08:02;;;;;;;4.90;1.60;;;;;;;;;;5004365;28;20537;-78
2021/10/30 14:10:27;;;;;;;3.38;1.67;;;;;;;;;;5001515;28;20057;-81
2021/10/30 14:12:52;;;;;;;2.38;1.50;;;;;;;;;;5010236;28;20076;-77
2021/10/30 14:15:19;;;;;;;3.55;1.52;;;;;;;;;;5002838;28;20042;-86
2021/10/30 14:17:45;;;;;;;2.80;1.52;;;;;;;;;;5009026;28;20029;-77
2021/10/30 14:20:10;;;;;;;2.88;1.50;;;;;;;;;;5014820;28;20043;-86
2021/10/30 14:22:36;;;;;;;2.75;1.50;;;;;;;;;;5019591;28;20033;-76
2021/10/30 14:25:01;;;;;;;2.70;1.40;;;;;;;;;;5018014;28;20033;-77
2021/10/30 14:27:26;;;;;;;2.40;1.33;;;;;;;;;;5012173;28;20100;-81
2021/10/30 14:29:52;;;;;;;2.83;1.40;;;;;;;;;;5016420;28;20025;-86
2021/10/30 14:32:18;;;;;;;2.08;1.27;;;;;;;;;;5011212;28;20026;-77
2021/10/30 14:34:43;;;;;;;3.33;1.60;;;;;;;;;;5011363;28;20029;-86
2021/10/30 14:37:10;;;;;;;3.08;1.23;;;;;;;;;;5017562;28;20018;-82
2021/10/30 14:39:35;;;;;;;2.72;1.10;;;;;;;;;;5013815;28;20581;-77
2021/10/30 14:42:00;;;;;;;2.28;1.23;;;;;;;;;;5010642;28;20022;-77
2021/10/30 14:44:27;;;;;;;3.20;1.25;;;;;;;;;;5012622;28;20028;-84